createdAt,value
2022-12-31T00:02:25.332Z,94915.63
2022-12-31T00:04:51.864Z,94910.47
2022-12-31T00:07:19.337Z,94899.75
2022-12-31T00:09:48.621Z,94901.25
2022-12-31T00:12:16.083Z,94901.41
2022-12-31T00:14:43.240Z,94901.22
2022-12-31T00:17:09.772Z,94900.41
2022-12-31T00:19:36.348Z,94895.31
2022-12-31T00:22:02.805Z,94894.31
2022-12-31T00:24:29.225Z,94898.41
2022-12-31T00:26:55.695Z,94897.59
2022-12-31T00:29:22.160Z,94895.09
2022-12-31T00:31:48.564Z,94894.63
2022-12-31T00:34:15.002Z,94887.88
2022-12-31T00:36:41.454Z,94898.09
2022-12-31T00:39:07.872Z,94885.22
2022-12-31T00:41:34.291Z,94891.66
2022-12-31T00:44:00.719Z,94896.78
2022-12-31T00:46:27.264Z,94894.59
2022-12-31T00:48:53.729Z,94897.72
2022-12-31T00:51:20.136Z,94895.91
2022-12-31T00:53:46.570Z,94897.56
2022-12-31T00:56:13.109Z,94892.75
2022-12-31T00:58:39.552Z,94884.81
2022-12-31T01:01:06.080Z,94890.31
2022-12-31T01:03:32.622Z,94889.31
2022-12-31T01:05:59.066Z,94888.97
2022-12-31T01:08:25.569Z,94887.81
2022-12-31T01:10:52.043Z,94884.00
2022-12-31T01:13:18.489Z,94883.84
2022-12-31T01:15:44.993Z,94883.63
2022-12-31T01:18:11.484Z,94895.72
2022-12-31T01:20:38.460Z,94885.66
2022-12-31T01:23:04.894Z,94885.28
2022-12-31T01:25:31.331Z,94894.88
2022-12-31T01:27:57.822Z,94895.34
2022-12-31T01:30:24.271Z,94899.97
2022-12-31T01:32:50.720Z,94896.97
2022-12-31T01:35:17.182Z,94899.59
2022-12-31T01:37:43.626Z,94872.00
2022-12-31T01:40:10.143Z,94894.28
2022-12-31T01:42:36.572Z,94895.88
2022-12-31T01:45:02.990Z,94885.97
2022-12-31T01:47:29.407Z,94893.56
2022-12-31T01:49:55.825Z,94905.25
2022-12-31T01:52:22.349Z,94908.22
2022-12-31T01:54:48.794Z,94921.59
2022-12-31T01:57:15.220Z,94929.53
2022-12-31T01:59:41.656Z,94923.53
2022-12-31T02:02:08.130Z,94916.13
2022-12-31T02:04:34.613Z,94916.28
2022-12-31T02:07:01.037Z,94919.09
2022-12-31T02:09:27.477Z,94925.09
2022-12-31T02:11:53.901Z,94937.00
2022-12-31T02:14:20.310Z,94927.13
2022-12-31T02:16:46.748Z,94919.88
2022-12-31T02:19:13.174Z,94932.78
2022-12-31T02:21:39.631Z,94923.38
2022-12-31T02:24:06.198Z,94922.56
2022-12-31T02:26:35.016Z,94917.91
2022-12-31T02:29:01.427Z,94914.94
2022-12-31T02:31:29.271Z,94911.63
2022-12-31T02:33:55.755Z,94910.47
2022-12-31T02:36:22.489Z,94906.31
2022-12-31T02:38:48.914Z,94920.84
2022-12-31T02:41:15.347Z,94921.31
2022-12-31T02:43:41.848Z,94922.25
2022-12-31T02:46:09.354Z,94914.41
2022-12-31T02:48:36.989Z,94915.03
2022-12-31T02:51:05.808Z,94902.94
2022-12-31T02:53:32.241Z,94908.03
2022-12-31T02:55:59.388Z,94918.78
2022-12-31T02:58:25.878Z,94911.50
2022-12-31T03:00:55.792Z,94906.22
2022-12-31T03:03:22.745Z,94911.81
2022-12-31T03:05:49.481Z,94920.22
2022-12-31T03:08:18.004Z,94921.88
2022-12-31T03:10:45.509Z,94929.66
2022-12-31T03:13:11.927Z,94921.63
2022-12-31T03:15:39.084Z,94927.88
2022-12-31T03:18:05.729Z,94928.38
2022-12-31T03:20:34.687Z,94925.53
2022-12-31T03:23:03.900Z,94924.53
2022-12-31T03:25:30.551Z,94918.69
2022-12-31T03:27:58.030Z,94914.09
2022-12-31T03:30:24.469Z,94916.56
2022-12-31T03:38:22.685Z,94921.59
2022-12-31T03:40:50.369Z,94917.28
2022-12-31T03:43:23.688Z,94919.31
2022-12-31T03:45:52.708Z,94918.28
2022-12-31T03:48:42.624Z,94919.47
2022-12-31T03:51:18.687Z,94918.47
2022-12-31T03:53:49.329Z,94919.63
2022-12-31T03:56:15.960Z,94920.63
2022-12-31T03:58:46.737Z,94921.47
2022-12-31T04:01:13.266Z,94926.63
2022-12-31T04:03:40.002Z,94923.69
2022-12-31T04:06:07.552Z,94926.03
2022-12-31T04:08:34.195Z,94931.69
2022-12-31T04:11:09.690Z,94921.81
2022-12-31T04:13:36.714Z,94923.47
2022-12-31T04:21:23.665Z,94925.38
2022-12-31T04:23:50.135Z,94922.94
2022-12-31T04:26:16.606Z,94915.03
2022-12-31T04:28:47.269Z,94911.94
2022-12-31T04:31:13.707Z,94925.53
2022-12-31T04:36:26.662Z,94924.75
2022-12-31T04:38:53.310Z,94923.25
2022-12-31T04:41:29.810Z,94927.06
2022-12-31T04:43:56.229Z,94931.69
2022-12-31T04:46:26.593Z,94925.75
2022-12-31T04:48:53.047Z,94926.09
2022-12-31T04:51:24.127Z,94922.47
2022-12-31T04:53:51.302Z,94923.44
2022-12-31T04:56:18.903Z,94918.63
2022-12-31T04:58:45.372Z,94919.31
2022-12-31T05:01:12.816Z,94924.91
2022-12-31T05:03:40.085Z,94925.94
2022-12-31T05:06:20.270Z,94925.41
2022-12-31T05:08:50.686Z,94923.44
2022-12-31T05:11:18.782Z,94921.28
2022-12-31T05:13:58.582Z,94920.63
2022-12-31T05:16:26.033Z,94923.59
2022-12-31T05:19:00.329Z,94925.38
2022-12-31T05:21:27.306Z,94929.00
2022-12-31T05:23:54.228Z,94919.56
2022-12-31T05:26:21.126Z,94924.16
2022-12-31T05:28:52.726Z,94926.47
2022-12-31T05:31:21.683Z,94927.63
2022-12-31T05:33:49.613Z,94926.81
2022-12-31T05:36:16.816Z,94922.19
2022-12-31T05:41:34.194Z,94924.63
2022-12-31T05:44:00.595Z,94929.75
2022-12-31T05:46:27.274Z,94937.22
2022-12-31T05:49:03.580Z,94946.00
2022-12-31T05:51:31.326Z,94939.88
2022-12-31T05:54:03.522Z,94941.84
2022-12-31T05:56:30.156Z,94958.03
2022-12-31T05:58:59.288Z,94946.31
2022-12-31T06:01:25.858Z,94942.78
2022-12-31T06:03:52.360Z,94946.63
2022-12-31T06:06:18.786Z,94950.56
2022-12-31T06:08:46.215Z,94948.56
2022-12-31T06:11:12.887Z,94944.75
2022-12-31T06:13:42.992Z,94940.28
2022-12-31T06:16:11.732Z,94945.72
2022-12-31T06:18:40.146Z,94949.53
2022-12-31T06:21:06.795Z,94962.06
2022-12-31T06:23:37.205Z,94968.53
2022-12-31T06:26:03.641Z,94978.66
2022-12-31T06:28:30.054Z,94980.47
2022-12-31T06:33:39.981Z,94983.50
2022-12-31T06:36:10.485Z,94973.75
2022-12-31T06:38:37.336Z,94982.38
2022-12-31T06:41:04.328Z,94977.13
2022-12-31T06:43:31.030Z,94984.91
2022-12-31T06:45:58.130Z,94979.44
2022-12-31T06:48:24.604Z,94994.53
2022-12-31T06:50:51.047Z,94997.47
2022-12-31T06:53:18.072Z,94988.09
2022-12-31T06:55:44.760Z,95003.13
2022-12-31T06:58:11.224Z,94995.34
2022-12-31T07:00:39.709Z,94991.53
2022-12-31T07:03:06.377Z,94982.16
2022-12-31T07:05:32.832Z,94987.59
2022-12-31T07:08:00.302Z,94982.81
2022-12-31T07:10:29.835Z,94990.91
2022-12-31T07:12:56.879Z,94995.50
2022-12-31T07:15:23.511Z,94992.03
2022-12-31T07:17:50.948Z,94992.88
2022-12-31T07:20:17.393Z,94985.44
2022-12-31T07:22:43.862Z,94994.03
2022-12-31T07:25:10.308Z,94990.72
2022-12-31T07:27:36.715Z,94995.03
2022-12-31T07:30:05.337Z,94995.53
2022-12-31T07:32:31.912Z,95000.97
2022-12-31T07:34:58.325Z,95006.94
2022-12-31T07:37:24.859Z,94996.84
2022-12-31T07:39:51.305Z,95000.31
2022-12-31T07:42:17.752Z,95004.59
2022-12-31T07:44:44.166Z,95004.28
2022-12-31T07:47:10.601Z,95008.75
2022-12-31T07:49:37.028Z,95005.13
2022-12-31T07:52:03.501Z,95009.38
2022-12-31T07:54:29.964Z,95012.84
2022-12-31T07:56:56.368Z,95006.59
2022-12-31T07:59:24.634Z,95010.72
2022-12-31T08:01:51.345Z,95002.47
2022-12-31T08:04:17.950Z,94999.31
2022-12-31T08:06:44.384Z,95006.25
2022-12-31T08:09:10.846Z,94999.81
2022-12-31T08:11:37.272Z,95003.47
2022-12-31T08:14:03.711Z,95005.25
2022-12-31T08:16:30.142Z,95008.41
2022-12-31T08:18:56.637Z,95003.44
2022-12-31T08:21:23.059Z,95012.50
2022-12-31T08:23:49.482Z,95015.31
2022-12-31T08:26:15.889Z,95014.03
2022-12-31T08:28:42.382Z,95010.69
2022-12-31T08:31:08.852Z,95004.56
2022-12-31T08:33:35.355Z,95005.38
2022-12-31T08:36:01.799Z,95009.50
2022-12-31T08:38:28.254Z,95005.03
2022-12-31T08:40:54.673Z,95018.22
2022-12-31T08:43:21.082Z,95013.75
2022-12-31T08:45:47.560Z,95014.22
2022-12-31T08:48:14.004Z,95021.69
2022-12-31T08:50:40.387Z,95017.22
2022-12-31T08:53:06.845Z,95018.69
2022-12-31T08:55:33.275Z,95022.16
2022-12-31T08:57:59.673Z,95011.88
2022-12-31T09:00:26.140Z,95007.25
2022-12-31T09:02:52.574Z,95017.16
2022-12-31T09:05:18.957Z,95016.94
2022-12-31T09:07:45.356Z,95023.88
2022-12-31T09:10:11.802Z,95023.38
2022-12-31T09:12:38.281Z,95020.53
2022-12-31T09:15:04.745Z,95012.91
2022-12-31T09:17:32.996Z,95012.56
2022-12-31T09:20:00.016Z,95014.69
2022-12-31T09:22:30.205Z,95025.13
2022-12-31T09:24:56.807Z,95030.88
2022-12-31T09:27:27.412Z,95021.59
2022-12-31T09:29:54.329Z,95025.72
2022-12-31T09:32:20.855Z,95028.22
2022-12-31T09:34:47.286Z,95025.88
2022-12-31T09:37:13.700Z,95020.19
2022-12-31T09:39:40.113Z,95026.00
2022-12-31T09:42:06.578Z,95025.63
2022-12-31T09:44:32.997Z,95022.44
2022-12-31T09:46:59.444Z,95029.78
2022-12-31T09:49:25.878Z,95018.81
2022-12-31T09:51:52.300Z,95023.13
2022-12-31T09:54:18.752Z,95023.41
2022-12-31T09:56:45.173Z,95015.28
2022-12-31T09:59:11.824Z,95013.09
2022-12-31T10:01:38.324Z,95015.41
2022-12-31T10:04:04.769Z,95008.59
2022-12-31T10:06:31.207Z,95007.50
2022-12-31T10:08:57.641Z,94998.69
2022-12-31T10:11:24.089Z,94997.97
2022-12-31T10:13:50.495Z,94990.91
2022-12-31T10:16:17.054Z,94988.84
2022-12-31T10:18:43.596Z,94992.63
2022-12-31T10:21:10.055Z,94978.81
2022-12-31T10:23:36.575Z,94988.50
2022-12-31T10:26:03.138Z,94984.16
2022-12-31T10:28:29.599Z,94977.13
2022-12-31T10:30:56.057Z,94981.88
2022-12-31T10:33:22.616Z,94977.50
2022-12-31T10:35:49.034Z,94981.69
2022-12-31T10:38:15.560Z,94976.50
2022-12-31T10:40:41.989Z,94965.13
2022-12-31T10:43:08.398Z,94976.75
2022-12-31T10:45:34.838Z,94972.97
2022-12-31T10:48:01.249Z,94972.81
2022-12-31T10:50:27.641Z,94967.13
2022-12-31T10:52:54.038Z,94969.97
2022-12-31T10:55:22.291Z,94972.47
2022-12-31T10:57:48.724Z,94966.09
2022-12-31T11:00:15.439Z,94959.22
2022-12-31T11:02:41.950Z,94959.69
2022-12-31T11:05:19.537Z,94960.31
2022-12-31T11:07:45.980Z,94948.91
2022-12-31T11:10:12.375Z,94947.50
2022-12-31T11:12:38.807Z,94956.19
2022-12-31T11:15:05.188Z,94944.94
2022-12-31T11:17:31.609Z,94941.28
2022-12-31T11:19:58.007Z,94940.69
2022-12-31T11:22:24.391Z,94940.31
2022-12-31T11:24:50.805Z,94933.00
2022-12-31T11:27:17.223Z,94921.72
2022-12-31T11:29:43.671Z,94929.13
2022-12-31T11:32:10.251Z,94918.31
2022-12-31T11:34:36.684Z,94908.31
2022-12-31T11:37:03.082Z,94909.31
2022-12-31T11:39:31.394Z,94909.75
2022-12-31T11:41:58.053Z,94900.97
2022-12-31T11:44:24.460Z,94892.16
2022-12-31T11:46:50.939Z,94882.75
2022-12-31T11:49:17.356Z,94877.81
2022-12-31T11:51:49.966Z,94869.56
2022-12-31T11:54:16.978Z,94872.69
2022-12-31T11:56:43.393Z,94873.69
2022-12-31T11:59:13.151Z,94872.47
2022-12-31T12:01:42.284Z,94872.75
2022-12-31T12:04:09.423Z,94867.69
2022-12-31T12:06:37.038Z,94860.97
2022-12-31T12:09:03.493Z,94869.13
2022-12-31T12:11:29.914Z,94860.78
2022-12-31T12:13:56.351Z,94855.28
2022-12-31T12:16:22.842Z,94861.41
2022-12-31T12:18:49.302Z,94866.53
2022-12-31T12:21:15.735Z,94857.38
2022-12-31T12:23:42.151Z,94853.69
2022-12-31T12:26:08.763Z,94860.47
2022-12-31T12:28:39.621Z,94853.13
2022-12-31T12:31:10.983Z,94849.00
2022-12-31T12:33:38.554Z,94849.25
2022-12-31T12:36:06.159Z,94831.66
2022-12-31T12:38:33.745Z,94835.13
2022-12-31T12:41:00.344Z,94833.75
2022-12-31T12:43:26.956Z,94836.41
2022-12-31T12:45:54.532Z,94843.19
2022-12-31T12:48:21.112Z,94838.06
2022-12-31T12:50:47.695Z,94837.06
2022-12-31T12:53:14.336Z,94838.53
2022-12-31T12:55:41.921Z,94842.84
2022-12-31T12:58:09.926Z,94836.47
2022-12-31T13:00:38.202Z,94847.09
2022-12-31T13:03:04.759Z,94837.88
2022-12-31T13:05:32.438Z,94843.00
2022-12-31T13:07:59.067Z,94841.38
2022-12-31T13:10:25.665Z,94844.22
2022-12-31T13:15:38.929Z,94859.06
2022-12-31T13:18:05.414Z,94852.91
2022-12-31T13:20:32.150Z,94845.34
2022-12-31T13:22:58.763Z,94847.19
2022-12-31T13:25:25.568Z,94840.03
2022-12-31T13:27:53.010Z,94843.31
2022-12-31T13:30:19.683Z,94853.13
2022-12-31T13:32:46.158Z,94861.66
2022-12-31T13:35:12.922Z,94865.28
2022-12-31T13:37:39.479Z,94868.13
2022-12-31T13:40:06.280Z,94859.75
2022-12-31T13:42:32.858Z,94859.75
2022-12-31T13:44:59.484Z,94870.78
2022-12-31T13:47:26.083Z,94866.72
2022-12-31T13:49:52.533Z,94869.97
2022-12-31T13:52:19.160Z,94868.31
2022-12-31T13:54:46.207Z,94862.25
2022-12-31T13:57:12.812Z,94869.19
2022-12-31T13:59:40.523Z,94866.94
2022-12-31T14:02:08.149Z,94875.66
2022-12-31T14:04:35.643Z,94875.84
2022-12-31T14:07:03.210Z,94872.75
2022-12-31T14:09:30.125Z,94873.56
2022-12-31T14:11:58.423Z,94875.22
2022-12-31T14:14:25.047Z,94872.94
2022-12-31T14:16:52.695Z,94883.94
2022-12-31T14:19:20.244Z,94874.97
2022-12-31T14:21:46.845Z,94877.63
2022-12-31T14:24:13.300Z,94881.28
2022-12-31T14:26:40.022Z,94879.66
2022-12-31T14:29:07.659Z,94883.41
2022-12-31T14:31:35.233Z,94885.41
2022-12-31T14:34:02.807Z,94891.91
2022-12-31T14:36:29.239Z,94888.63
2022-12-31T14:38:56.003Z,94884.50
2022-12-31T14:41:22.856Z,94881.03
2022-12-31T14:43:50.202Z,94896.16
2022-12-31T14:46:17.888Z,94908.59
2022-12-31T14:48:45.384Z,94900.63
2022-12-31T14:51:11.987Z,94904.69
2022-12-31T14:53:39.018Z,94912.41
2022-12-31T14:56:06.183Z,94912.22
2022-12-31T14:58:33.802Z,94903.34
2022-12-31T15:01:01.749Z,94904.53
2022-12-31T15:03:30.155Z,94910.50
2022-12-31T15:05:57.770Z,94901.09
2022-12-31T15:08:24.356Z,94905.19
2022-12-31T15:10:50.955Z,94904.09
2022-12-31T15:13:18.551Z,94913.72
2022-12-31T15:15:45.142Z,94912.88
2022-12-31T15:18:11.585Z,94917.75
2022-12-31T15:20:38.157Z,94919.13
2022-12-31T15:23:04.550Z,94918.50
2022-12-31T15:25:40.504Z,94917.22
2022-12-31T15:28:09.168Z,94921.25
2022-12-31T15:30:35.809Z,94921.38
2022-12-31T15:33:02.424Z,94918.06
2022-12-31T15:35:31.304Z,94913.94
2022-12-31T15:37:57.755Z,94916.97
2022-12-31T15:40:24.189Z,94914.25
2022-12-31T15:42:50.672Z,94923.75
2022-12-31T15:45:17.119Z,94919.66
2022-12-31T15:50:25.601Z,94930.72
2022-12-31T15:52:53.181Z,94925.22
2022-12-31T15:55:20.783Z,94941.69
2022-12-31T15:57:48.351Z,94935.25
2022-12-31T16:00:17.016Z,94946.25
2022-12-31T16:02:45.702Z,94942.94
2022-12-31T16:07:53.803Z,94948.97
2022-12-31T16:10:21.402Z,94948.25
2022-12-31T16:12:50.079Z,94947.94
2022-12-31T16:15:18.628Z,94947.94
2022-12-31T16:17:46.208Z,94957.81
2022-12-31T16:20:12.842Z,94951.84
2022-12-31T16:22:40.424Z,94954.88
2022-12-31T16:27:53.674Z,94961.72
2022-12-31T16:30:21.254Z,94955.22
2022-12-31T16:32:48.281Z,94953.47
2022-12-31T16:35:21.631Z,94956.31
2022-12-31T16:37:50.108Z,94962.25
2022-12-31T16:40:16.670Z,94959.63
2022-12-31T16:42:44.633Z,94969.72
2022-12-31T16:45:11.173Z,94974.03
2022-12-31T16:47:37.597Z,94970.09
2022-12-31T16:50:05.046Z,94975.41
2022-12-31T16:52:31.856Z,94976.41
2022-12-31T16:54:59.218Z,94965.63
2022-12-31T16:57:25.657Z,94974.22
2022-12-31T16:59:53.447Z,94971.94
2022-12-31T17:02:20.083Z,94969.56
2022-12-31T17:04:53.705Z,94977.69
2022-12-31T17:07:22.278Z,94981.53
2022-12-31T17:09:48.870Z,94974.22
2022-12-31T17:12:15.336Z,94978.72
2022-12-31T17:14:42.060Z,94978.88
2022-12-31T17:17:08.648Z,94973.69
2022-12-31T17:19:35.252Z,94975.16
2022-12-31T17:22:01.782Z,94977.81
2022-12-31T17:24:28.464Z,94972.22
2022-12-31T17:26:55.053Z,94968.72
2022-12-31T17:29:26.308Z,94976.34
2022-12-31T17:31:53.102Z,94974.16
2022-12-31T17:34:19.572Z,94973.97
2022-12-31T17:36:46.435Z,94977.63
2022-12-31T17:39:12.905Z,94979.47
2022-12-31T17:41:39.349Z,94973.31
2022-12-31T17:44:05.786Z,94985.75
2022-12-31T17:46:32.256Z,94973.31
2022-12-31T17:48:58.708Z,94979.09
2022-12-31T17:51:26.055Z,94989.69
2022-12-31T17:53:53.661Z,94985.41
2022-12-31T17:56:21.236Z,94992.72
2022-12-31T17:58:47.657Z,94982.94
2022-12-31T18:01:14.532Z,94986.75
2022-12-31T18:03:41.173Z,94975.31
2022-12-31T18:06:12.917Z,94984.81
2022-12-31T18:08:42.643Z,94988.66
2022-12-31T18:11:10.812Z,94993.66
2022-12-31T18:13:37.242Z,94991.34
2022-12-31T18:16:03.711Z,94986.06
2022-12-31T18:18:30.159Z,94984.22
2022-12-31T18:20:56.570Z,94991.91
2022-12-31T18:23:22.999Z,94989.25
2022-12-31T18:25:49.668Z,94984.13
2022-12-31T18:28:16.112Z,94974.22
2022-12-31T18:30:42.557Z,94978.72
2022-12-31T18:33:09.039Z,94969.94
2022-12-31T18:38:21.904Z,94981.03
2022-12-31T18:40:48.458Z,94985.72
2022-12-31T18:43:14.906Z,94993.84
2022-12-31T18:45:41.350Z,94980.28
2022-12-31T18:48:07.797Z,94984.94
2022-12-31T18:50:35.371Z,94994.69
2022-12-31T18:53:02.972Z,95004.59
2022-12-31T18:55:29.575Z,95010.44
2022-12-31T18:57:56.028Z,95000.00
2022-12-31T19:00:22.468Z,95000.19
2022-12-31T19:02:48.919Z,94994.69
2022-12-31T19:05:15.332Z,94988.25
2022-12-31T19:07:41.753Z,94986.06
2022-12-31T19:10:08.292Z,94994.19
2022-12-31T19:12:34.735Z,94993.72
2022-12-31T19:15:01.155Z,94993.72
2022-12-31T19:17:27.576Z,94993.16
2022-12-31T19:19:54.018Z,94975.00
2022-12-31T19:22:20.422Z,94979.00
2022-12-31T19:24:46.846Z,94984.75
2022-12-31T19:27:13.281Z,94988.78
2022-12-31T19:29:39.719Z,94978.00
2022-12-31T19:32:06.442Z,94979.81
2022-12-31T19:34:34.017Z,94979.16
2022-12-31T19:37:00.623Z,94970.56
2022-12-31T19:39:27.074Z,94974.41
2022-12-31T19:41:58.844Z,94975.56
2022-12-31T19:44:25.661Z,94977.75
2022-12-31T19:46:52.061Z,94980.03
2022-12-31T19:49:18.600Z,94980.22
2022-12-31T19:51:45.011Z,94986.00
2022-12-31T19:54:11.426Z,94984.50
2022-12-31T19:56:37.848Z,94987.16
2022-12-31T19:59:04.254Z,94990.31
2022-12-31T20:01:30.730Z,94989.88
2022-12-31T20:03:57.247Z,94982.44
2022-12-31T20:06:23.689Z,94993.66
2022-12-31T20:08:50.108Z,94995.50
2022-12-31T20:11:16.521Z,94990.41
2022-12-31T20:13:42.980Z,95000.50
2022-12-31T20:16:09.481Z,95001.84
2022-12-31T20:18:35.907Z,95010.09
2022-12-31T20:21:02.434Z,95008.78
2022-12-31T20:23:28.902Z,95004.78
2022-12-31T20:25:55.347Z,94997.84
2022-12-31T20:28:21.803Z,95000.84
2022-12-31T20:30:48.305Z,95000.84
2022-12-31T20:33:19.073Z,94998.84
2022-12-31T20:35:45.811Z,95006.97
2022-12-31T20:38:12.238Z,95000.69
2022-12-31T20:40:44.608Z,94999.66
2022-12-31T20:43:13.001Z,95000.84
2022-12-31T20:45:39.404Z,95003.81
2022-12-31T20:48:05.815Z,95003.81
2022-12-31T20:50:32.227Z,95002.84
2022-12-31T20:52:58.636Z,95003.00
2022-12-31T20:55:25.067Z,95012.97
2022-12-31T20:57:51.473Z,95008.66
2022-12-31T21:00:17.890Z,95015.59
2022-12-31T21:02:47.836Z,95015.59
2022-12-31T21:05:18.197Z,95006.16
2022-12-31T21:07:44.740Z,95021.44
2022-12-31T21:10:11.182Z,95021.59
2022-12-31T21:12:37.599Z,95031.50
2022-12-31T21:15:04.004Z,95026.53
2022-12-31T21:17:30.435Z,95023.06
2022-12-31T21:19:56.857Z,95025.72
2022-12-31T21:22:23.272Z,95018.94
2022-12-31T21:24:49.688Z,95021.78
2022-12-31T21:27:16.102Z,95016.97
2022-12-31T21:30:16.406Z,95018.00
2022-12-31T21:32:28.883Z,95010.84
2022-12-31T21:35:31.166Z,95012.53
2022-12-31T21:37:59.198Z,95019.66
2022-12-31T21:40:26.908Z,95013.38
2022-12-31T21:42:53.332Z,95007.78
2022-12-31T21:45:19.748Z,95020.19
2022-12-31T21:47:47.794Z,95014.69
2022-12-31T21:50:14.367Z,95014.22
2022-12-31T21:52:40.796Z,95028.13
2022-12-31T21:55:07.234Z,95027.28
2022-12-31T21:57:51.995Z,95025.63
2022-12-31T22:00:42.374Z,95039.66
2022-12-31T22:03:06.558Z,95039.19
2022-12-31T22:05:33.059Z,95042.81
2022-12-31T22:07:59.504Z,95053.56
2022-12-31T22:10:25.953Z,95045.63
2022-12-31T22:12:52.471Z,95049.41
2022-12-31T22:15:18.903Z,95055.38
2022-12-31T22:17:45.378Z,95056.19
2022-12-31T22:20:28.114Z,95048.94
2022-12-31T22:22:55.195Z,95060.19
2022-12-31T22:25:21.703Z,95059.84
2022-12-31T22:28:04.456Z,95053.56
2022-12-31T22:30:34.545Z,95062.84
2022-12-31T22:33:00.977Z,95058.84
2022-12-31T22:35:27.392Z,95065.63
2022-12-31T22:37:57.552Z,95061.13
2022-12-31T22:40:25.549Z,95068.09
2022-12-31T22:42:51.957Z,95066.63
2022-12-31T22:45:18.465Z,95081.00
2022-12-31T22:47:44.874Z,95079.81
2022-12-31T22:50:11.300Z,95081.16
2022-12-31T22:52:37.762Z,95087.94
2022-12-31T22:55:04.176Z,95099.84
2022-12-31T22:57:30.585Z,95085.44
2022-12-31T22:59:57.029Z,95102.00
2022-12-31T23:02:23.528Z,95096.34
2022-12-31T23:04:49.955Z,95100.31
2022-12-31T23:07:16.467Z,95109.06
2022-12-31T23:09:42.901Z,95116.50
2022-12-31T23:12:09.321Z,95117.16
2022-12-31T23:14:35.770Z,95104.91
2022-12-31T23:17:30.351Z,95105.28
2022-12-31T23:19:48.607Z,95105.44
2022-12-31T23:22:15.038Z,95104.44
2022-12-31T23:24:41.460Z,95107.63
2022-12-31T23:27:07.914Z,95111.91
2022-12-31T23:29:34.335Z,95106.47
2022-12-31T23:32:00.775Z,95108.81
2022-12-31T23:34:27.241Z,95096.84
2022-12-31T23:36:53.677Z,95103.31
2022-12-31T23:39:20.216Z,95120.88
2022-12-31T23:41:46.637Z,95119.53
2022-12-31T23:44:13.027Z,95108.00
2022-12-31T23:46:39.609Z,95112.78
2022-12-31T23:49:06.071Z,95111.31
2022-12-31T23:51:32.489Z,95120.25
2022-12-31T23:53:58.901Z,95120.88
2022-12-31T23:56:25.294Z,95114.78
2022-12-31T23:58:51.721Z,95113.28
